Time;durP1;ratioP1;P1;durP2;ratioP2;P2;SDS_P1;SDS_P2;PMS_P1;PMS_P2;Temp;Humidity;BMP_temperature;BMP_pressure;BME280_temperature;BME280_humidity;BME280_pressure;Samples;Min_cycle;Max_cycle;Signal;HPM_P1;HPM_P2
2023/09/01 00:02:20;;;;;;;2.20;1.50;;;12.10;1.00;;;;;;10564315;28;20319;-79
2023/09/01 00:07:52;;;;;;;2.60;1.30;;;12.10;99.90;;;;;;10549383;28;20236;-80
2023/09/01 00:13:13;;;;;;;4.37;1.90;;;12.00;47.50;;;;;;10549560;28;20201;-79
2023/09/01 00:18:34;;;;;;;2.13;1.60;;;12.00;99.90;;;;;;10535068;28;20200;-78
2023/09/01 00:23:55;;;;;;;2.90;1.60;;;11.90;99.90;;;;;;10563197;28;20192;-82
2023/09/01 00:29:17;;;;;;;2.60;1.80;;;11.90;1.00;;;;;;10548695;28;20227;-83
2023/09/01 00:34:38;;;;;;;3.03;1.80;;;11.90;99.90;;;;;;10563032;28;20192;-81
2023/09/01 00:39:59;;;;;;;2.73;2.00;;;11.90;99.90;;;;;;10525926;28;20239;-80
2023/09/01 00:45:20;;;;;;;4.27;2.10;;;11.90;1.00;;;;;;10534441;28;20219;-83
2023/09/01 00:50:43;;;;;;;2.33;1.80;;;12.00;99.90;;;;;;10547954;28;20291;-81
2023/09/01 00:56:05;;;;;;;2.73;1.73;;;12.10;99.90;;;;;;10547400;28;20224;-80
2023/09/01 01:01:26;;;;;;;5.20;1.97;;;;;;;;;;10533567;28;20205;-80
2023/09/01 01:06:50;;;;;;;2.30;1.70;;;12.10;1.00;;;;;;10547604;28;20389;-81
2023/09/01 01:12:25;;;;;;;3.27;1.90;;;12.10;1.00;;;;;;10561816;28;20188;-83
2023/09/01 01:17:47;;;;;;;3.33;1.80;;;12.00;99.90;;;;;;10547082;28;20223;-82
2023/09/01 01:23:10;;;;;;;2.10;1.80;;;11.90;99.90;;;;;;10547044;28;20197;-81
2023/09/01 01:28:31;;;;;;;3.10;2.17;;;11.90;1.00;;;;;;10561696;28;20224;-81
2023/09/01 01:34:00;;;;;;;1.97;1.60;;;12.00;1.00;;;;;;10546583;28;20193;-81
2023/09/01 01:39:33;;;;;;;6.53;2.40;;;12.00;99.90;;;;;;10561636;28;20210;-81
2023/09/01 01:44:58;;;;;;;2.43;2.00;;;12.00;1.00;;;;;;10546348;28;20200;-80
2023/09/01 01:50:19;;;;;;;4.17;2.57;;;12.00;1.00;;;;;;10546071;28;20229;-81
2023/09/01 01:55:40;;;;;;;5.13;3.20;;;12.10;1.00;;;;;;10546214;28;20456;-80
2023/09/01 02:01:06;;;;;;;2.80;2.30;;;12.10;1.00;;;;;;10560368;28;20193;-81
2023/09/01 02:06:27;;;;;;;3.77;2.83;;;12.10;1.00;;;;;;10565727;28;20199;-80
2023/09/01 02:11:48;;;;;;;8.10;3.90;;;12.20;1.00;;;;;;10554202;28;20386;-80
2023/09/01 02:17:10;;;;;;;3.77;3.30;;;12.20;1.00;;;;;;10569433;28;20189;-82
2023/09/01 02:22:30;;;;;;;7.43;3.67;;;12.20;1.00;;;;;;10553789;28;20503;-81
2023/09/01 02:27:52;;;;;;;4.20;3.80;;;12.30;1.00;;;;;;10553974;28;20289;-80
2023/09/01 02:33:14;;;;;;;5.57;3.30;;;12.20;1.00;;;;;;10553862;28;20188;-81
2023/09/01 02:38:35;;;;;;;4.03;3.20;;;12.20;1.00;;;;;;10552915;28;20210;-80
2023/09/01 02:43:57;;;;;;;4.30;3.17;;;12.30;1.00;;;;;;10567386;28;20233;-82
2023/09/01 02:49:18;;;;;;;3.17;2.57;;;12.30;1.00;;;;;;10567269;28;20296;-81
2023/09/01 02:54:39;;;;;;;3.70;2.70;;;12.30;99.90;;;;;;10552770;28;20492;-81
2023/09/01 03:00:01;;;;;;;4.47;2.87;;;12.30;99.90;;;;;;10552087;28;20373;-81
2023/09/01 03:05:25;;;;;;;4.53;2.97;;;12.20;1.00;;;;;;10538288;28;20211;-81
2023/09/01 03:10:47;;;;;;;5.97;3.60;;;12.30;99.90;;;;;;10566604;28;20243;-81
2023/09/01 03:16:08;;;;;;;4.23;3.03;;;12.20;99.90;;;;;;10536954;28;20196;-83
2023/09/01 03:21:30;;;;;;;3.43;2.60;;;12.20;1.00;;;;;;10537670;28;20231;-82
2023/09/01 03:26:51;;;;;;;3.13;2.53;;;12.30;99.90;;;;;;10551380;28;20218;-83
2023/09/01 03:32:13;;;;;;;12.13;3.30;;;12.20;1.00;;;;;;10565700;28;20564;-81
2023/09/01 03:37:34;;;;;;;4.10;3.30;;;12.10;1.00;;;;;;10565296;28;20202;-83
2023/09/01 03:42:55;;;;;;;4.03;3.07;;;12.10;1.00;;;;;;10509152;28;20243;-81
2023/09/01 03:48:17;;;;;;;4.57;2.80;;;12.10;99.90;;;;;;10517000;28;20245;-81
2023/09/01 03:53:39;;;;;;;4.80;2.63;;;12.10;1.00;;;;;;10564812;28;20190;-82
2023/09/01 03:59:00;;;;;;;4.07;3.10;;;12.10;99.90;;;;;;10535740;28;20515;-81
2023/09/01 04:04:21;;;;;;;5.13;3.37;;;12.00;99.90;;;;;;10549756;28;20196;-81
2023/09/01 04:09:42;;;;;;;4.27;3.50;;;12.10;1.00;;;;;;10549863;28;20216;-81
2023/09/01 04:15:06;;;;;;;4.20;3.70;;;12.10;1.00;;;;;;10549365;28;20202;-80
2023/09/01 04:20:29;;;;;;;4.73;3.57;;;12.00;99.90;;;;;;10549812;28;20274;-81
2023/09/01 04:25:51;;;;;;;7.30;4.30;;;12.10;1.00;;;;;;10563304;28;20191;-81
2023/09/01 04:31:21;;;;;;;4.23;3.83;;;12.00;1.00;;;;;;10547275;28;20246;-81
2023/09/01 04:36:42;;;;;;;5.47;4.00;;;12.10;99.90;;;;;;10548393;28;20205;-80
2023/09/01 04:42:07;;;;;;;3.90;3.50;;;12.10;99.90;;;;;;10548659;28;20232;-80
2023/09/01 04:47:29;;;;;;;4.53;3.60;;;12.10;1.00;;;;;;10548290;28;20257;-80
2023/09/01 04:52:50;;;;;;;4.37;3.93;;;12.10;99.90;;;;;;10492047;28;20197;-80
2023/09/01 04:58:12;;;;;;;4.23;3.73;;;12.20;99.90;;;;;;10544070;28;20196;-80
2023/09/01 05:03:33;;;;;;;3.87;3.53;;;12.30;1.00;;;;;;10547671;28;20218;-80
2023/09/01 05:08:54;;;;;;;5.40;3.57;;;12.30;1.00;;;;;;10546976;28;20228;-80
2023/09/01 05:14:16;;;;;;;5.20;3.97;;;12.40;1.00;;;;;;10546987;28;20195;-80
2023/09/01 05:19:37;;;;;;;4.30;3.47;;;12.40;99.90;;;;;;10561398;28;20355;-82
2023/09/01 05:24:58;;;;;;;5.47;4.43;;;12.50;1.00;;;;;;10546430;28;20201;-81
2023/09/01 05:30:19;;;;;;;6.97;5.30;;;12.60;1.00;;;;;;10560772;28;20280;-80
2023/09/01 05:35:41;;;;;;;3.63;3.30;;;12.70;1.00;;;;;;10546494;28;20196;-81
2023/09/01 05:41:03;;;;;;;6.63;5.20;;;12.80;1.00;;;;;;10560018;28;20304;-81
2023/09/01 05:46:24;;;;;;;3.23;2.93;;;13.00;1.00;;;;;;10560790;28;20197;-80
2023/09/01 05:51:45;;;;;;;4.37;3.83;;;13.10;1.00;;;;;;10545929;28;20212;-81
2023/09/01 05:57:06;;;;;;;16.90;9.17;;;13.20;1.00;;;;;;10560145;28;20288;-80
2023/09/01 06:02:28;;;;;;;6.43;4.37;;;13.20;1.00;;;;;;10546062;28;20479;-81
2023/09/01 06:07:49;;;;;;;4.83;3.63;;;13.30;99.90;;;;;;10560982;28;20267;-80
2023/09/01 06:13:10;;;;;;;4.93;3.87;;;13.30;39.50;;;;;;10531767;28;20219;-80
2023/09/01 06:18:31;;;;;;;8.57;5.13;;;13.20;89.30;;;;;;10546066;28;20244;-81
2023/09/01 06:23:52;;;;;;;7.13;4.53;;;13.20;99.90;;;;;;10560675;28;20223;-82
2023/09/01 06:29:13;;;;;;;5.07;4.10;;;13.10;1.00;;;;;;10560082;28;20247;-81
2023/09/01 06:34:34;;;;;;;5.75;4.20;;;13.10;99.90;;;;;;10545640;28;20387;-81
2023/09/01 06:39:56;;;;;;;5.27;4.77;;;13.10;99.90;;;;;;10536783;28;20232;-85
2023/09/01 06:45:17;;;;;;;6.10;4.63;;;13.20;99.90;;;;;;10560137;28;20480;-84
2023/09/01 06:50:38;;;;;;;4.80;3.67;;;13.30;1.00;;;;;;10560349;28;20389;-81
2023/09/01 06:56:00;;;;;;;7.90;4.90;;;13.40;1.00;;;;;;10567882;28;20193;-87
2023/09/01 07:01:21;;;;;;;11.07;6.53;;;13.40;1.00;;;;;;10567300;28;20492;-81
2023/09/01 07:06:42;;;;;;;5.67;4.33;;;13.40;1.00;;;;;;10566951;28;20197;-80
2023/09/01 07:12:04;;;;;;;5.97;4.03;;;13.40;21.30;;;;;;10552196;28;20372;-80
2023/09/01 07:17:25;;;;;;;6.17;5.00;;;13.40;51.50;;;;;;10566448;28;20213;-80
2023/09/01 07:22:46;;;;;;;5.55;4.53;;;13.50;5.10;;;;;;10565268;28;20511;-83
2023/09/01 07:28:08;;;;;;;5.27;4.17;;;13.50;26.10;;;;;;10537040;28;20281;-81
2023/09/01 07:33:30;;;;;;;9.23;4.80;;;13.70;61.20;;;;;;10565607;28;20192;-89
2023/09/01 07:38:51;;;;;;;5.68;3.92;;;13.80;96.00;;;;;;10565765;28;20224;-86
2023/09/01 07:44:16;;;;;;;8.37;4.33;;;14.00;24.10;;;;;;10565673;28;20194;-89
2023/09/01 07:49:37;;;;;;;6.53;4.53;;;14.00;1.00;;;;;;10565429;28;20222;-87
2023/09/01 07:54:58;;;;;;;9.18;4.97;;;13.90;99.90;;;;;;10536390;28;20194;-88
2023/09/01 08:00:19;;;;;;;4.80;3.70;;;13.90;1.00;;;;;;10536495;28;20560;-83
2023/09/01 08:05:41;;;;;;;7.97;4.37;;;13.90;1.00;;;;;;10564595;28;20197;-89
2023/09/01 08:11:02;;;;;;;4.90;3.13;;;14.00;1.00;;;;;;10564340;28;20403;-88
2023/09/01 08:16:24;;;;;;;4.43;2.90;;;14.20;99.90;;;;;;10564064;28;20202;-89
2023/09/01 08:21:45;;;;;;;5.20;3.38;;;14.20;99.90;;;;;;10549670;28;20211;-85
2023/09/01 08:27:09;;;;;;;6.38;4.15;;;14.20;85.70;;;;;;10564189;28;20203;-84
2023/09/01 08:32:30;;;;;;;5.40;3.63;;;14.10;99.90;;;;;;10549396;28;20195;-86
2023/09/01 08:37:51;;;;;;;7.93;4.07;;;14.00;99.90;;;;;;10548526;28;20203;-85
2023/09/01 08:43:14;;;;;;;8.00;3.88;;;13.90;99.90;;;;;;10547937;28;20271;-79
2023/09/01 08:48:35;;;;;;;4.68;3.63;;;13.90;1.00;;;;;;10562315;28;20238;-79
2023/09/01 08:54:09;;;;;;;8.15;4.68;;;13.90;99.90;;;;;;10562673;28;20189;-85
2023/09/01 08:59:31;;;;;;;8.27;3.67;;;14.00;99.90;;;;;;10534058;28;20209;-83
2023/09/01 09:04:53;;;;;;;6.60;4.18;;;14.00;1.00;;;;;;10562131;28;20516;-86
2023/09/01 09:10:14;;;;;;;10.60;5.93;;;14.00;1.00;;;;;;10562769;28;20225;-79
2023/09/01 09:15:34;;;;;;;6.97;4.15;;;14.00;99.90;;;;;;10546761;28;20189;-84
2023/09/01 09:20:56;;;;;;;5.78;3.53;;;14.10;99.90;;;;;;10562558;28;20198;-82
2023/09/01 09:26:23;;;;;;;7.75;3.75;;;14.30;99.90;;;;;;10560947;28;20244;-80
2023/09/01 09:31:44;;;;;;;9.63;3.90;;;14.40;19.20;;;;;;10560447;28;20452;-80
2023/09/01 09:37:16;;;;;;;13.00;3.77;;;14.40;1.00;;;;;;10546696;28;20205;-83
2023/09/01 09:42:39;;;;;;;6.00;3.30;;;14.50;98.90;;;;;;10546309;28;20234;-84
2023/09/01 09:48:03;;;;;;;8.75;4.13;;;14.60;1.00;;;;;;10560347;28;20224;-81
2023/09/01 09:53:27;;;;;;;7.25;3.78;;;14.70;1.00;;;;;;10546406;28;20369;-82
2023/09/01 09:58:51;;;;;;;5.88;2.67;;;14.80;52.30;;;;;;10504271;28;20392;-81
2023/09/01 10:04:12;;;;;;;4.22;2.58;;;14.80;13.90;;;;;;10518636;28;20227;-81
2023/09/01 10:09:34;;;;;;;5.22;2.30;;;14.80;1.00;;;;;;10518330;28;20429;-84
2023/09/01 10:14:56;;;;;;;3.45;2.35;;;14.80;1.00;;;;;;10518506;28;20188;-85
2023/09/01 10:20:17;;;;;;;6.45;3.47;;;14.90;1.00;;;;;;10520923;28;20220;-81
2023/09/01 10:25:39;;;;;;;4.75;2.65;;;14.90;29.90;;;;;;10559505;28;20281;-84
2023/09/01 10:31:19;;;;;;;5.35;2.80;;;15.00;1.00;;;;;;10553346;28;20865;-83
2023/09/01 10:36:45;;;;;;;3.72;2.38;;;14.90;1.00;;;;;;10553578;28;20203;-80
2023/09/01 10:42:08;;;;;;;3.10;2.25;;;15.00;1.00;;;;;;10567253;28;20227;-81
2023/09/01 10:47:32;;;;;;;6.25;2.30;;;15.00;1.00;;;;;;10567245;28;20203;-80
2023/09/01 10:53:30;;;;;;;8.00;2.47;;;15.00;1.00;;;;;;10542053;28;20206;-80
2023/09/01 10:58:53;;;;;;;5.25;1.92;;;14.90;1.00;;;;;;10509941;28;20204;-79
2023/09/01 11:04:19;;;;;;;4.43;2.13;;;14.90;99.90;;;;;;10510429;28;20252;-81
2023/09/01 11:09:42;;;;;;;5.65;2.70;;;14.90;99.90;;;;;;10511568;28;20266;-82
2023/09/01 11:15:04;;;;;;;4.53;2.40;;;15.00;1.00;;;;;;10525906;28;20189;-83
2023/09/01 11:20:29;;;;;;;8.13;3.72;;;15.10;13.30;;;;;;10525317;28;20504;-81
2023/09/01 11:25:57;;;;;;;6.90;4.35;;;15.10;1.00;;;;;;10540130;28;20205;-86
2023/09/01 11:31:19;;;;;;;7.32;3.45;;;15.10;1.00;;;;;;10523996;28;20228;-81
2023/09/01 11:36:47;;;;;;;5.32;2.30;;;15.10;99.90;;;;;;10552872;28;20279;-85
2023/09/01 11:42:10;;;;;;;5.60;2.85;;;15.00;99.90;;;;;;10550614;28;20240;-82
2023/09/01 11:47:32;;;;;;;5.40;2.83;;;15.00;1.00;;;;;;10550781;28;20394;-81
2023/09/01 11:52:55;;;;;;;3.53;2.22;;;15.00;1.00;;;;;;10539670;28;20247;-79
2023/09/01 11:58:16;;;;;;;7.85;2.65;;;15.10;1.00;;;;;;10561383;28;20184;-82
2023/09/01 12:03:38;;;;;;;9.43;3.30;;;15.30;1.00;;;;;;10564263;28;20204;-86
2023/09/01 12:09:21;;;;;;;10.07;4.32;;;15.30;99.90;;;;;;10564099;28;20215;-81
2023/09/01 12:14:42;;;;;;;6.30;2.92;;;15.30;99.90;;;;;;10564228;28;20193;-82
2023/09/01 12:20:04;;;;;;;2.95;2.15;;;15.40;99.90;;;;;;10564126;28;20188;-80
2023/09/01 12:25:25;;;;;;;3.95;1.90;;;15.40;1.00;;;;;;10517616;28;20199;-86
2023/09/01 12:30:46;;;;;;;6.18;3.92;;;15.30;99.90;;;;;;10521372;28;20227;-81
2023/09/01 12:36:08;;;;;;;5.47;2.80;;;15.20;99.90;;;;;;10532027;28;20507;-80
2023/09/01 12:41:28;;;;;;;3.03;1.88;;;15.20;1.00;;;;;;10548655;28;20232;-83
2023/09/01 12:46:53;;;;;;;3.13;1.88;;;15.20;1.00;;;;;;10563053;28;20192;-85
2023/09/01 12:52:14;;;;;;;6.05;2.33;;;15.20;1.00;;;;;;10547090;28;20231;-83
2023/09/01 12:57:38;;;;;;;4.68;2.35;;;15.30;1.00;;;;;;10548061;28;20405;-82
2023/09/01 13:03:00;;;;;;;3.05;2.13;;;15.40;1.00;;;;;;10547705;28;20219;-84
2023/09/01 13:08:21;;;;;;;3.10;2.10;;;15.40;1.00;;;;;;10547592;28;20243;-80
2023/09/01 13:13:42;;;;;;;2.28;1.65;;;15.20;1.00;;;;;;10533545;28;20227;-81
2023/09/01 13:19:03;;;;;;;1.73;1.30;;;15.10;99.90;;;;;;10547556;28;20201;-79
2023/09/01 13:24:25;;;;;;;3.53;1.92;;;15.20;99.90;;;;;;10547531;28;20193;-79
2023/09/01 13:29:46;;;;;;;3.35;1.75;;;15.30;66.80;;;;;;10561535;28;20222;-80
2023/09/01 13:35:07;;;;;;;4.25;1.73;;;15.40;1.00;;;;;;10561096;28;20193;-81
2023/09/01 13:40:29;;;;;;;2.75;1.40;;;15.50;1.00;;;;;;10560611;28;20239;-80
2023/09/01 13:45:50;;;;;;;2.20;1.60;;;15.70;99.90;;;;;;10561478;28;20183;-83
2023/09/01 13:51:11;;;;;;;2.53;1.25;;;15.90;1.00;;;;;;10561615;28;20225;-85
2023/09/01 13:56:32;;;;;;;3.38;1.60;;;15.90;1.00;;;;;;10546466;28;20220;-81
2023/09/01 14:01:53;;;;;;;1.45;1.35;;;15.90;99.90;;;;;;10551303;28;20204;-86
2023/09/01 14:07:14;;;;;;;1.58;0.98;;;15.80;1.00;;;;;;10554913;28;20373;-83
2023/09/01 14:12:36;;;;;;;1.95;1.38;;;15.80;1.00;;;;;;10569096;28;20216;-81
2023/09/01 14:17:57;;;;;;;1.77;1.65;;;16.10;1.00;;;;;;10568654;28;20354;-85
2023/09/01 14:23:22;;;;;;;1.75;1.20;;;16.30;99.90;;;;;;10554713;28;20537;-87
2023/09/01 14:28:44;;;;;;;1.42;1.10;;;16.10;1.00;;;;;;10569616;28;20219;-87
2023/09/01 14:34:05;;;;;;;4.57;1.52;;;16.00;99.90;;;;;;10569814;28;20192;-85
2023/09/01 14:39:26;;;;;;;1.50;1.20;;;15.90;1.00;;;;;;10567907;28;20243;-87
2023/09/01 14:44:47;;;;;;;1.00;0.80;;;16.00;99.90;;;;;;10568701;28;20201;-86
2023/09/01 14:50:09;;;;;;;1.48;0.98;;;16.30;99.90;;;;;;10553059;28;20224;-82
2023/09/01 14:55:31;;;;;;;1.77;1.17;;;16.20;99.90;;;;;;10567037;28;20197;-87
2023/09/01 15:01:04;;;;;;;1.50;1.13;;;16.20;99.90;;;;;;10553151;28;20206;-81
2023/09/01 15:06:25;;;;;;;5.45;1.50;;;16.00;99.90;;;;;;10538552;28;20200;-81
2023/09/01 15:11:46;;;;;;;1.98;1.10;;;15.90;1.00;;;;;;10566065;28;20239;-82
2023/09/01 15:17:08;;;;;;;1.55;1.00;;;15.90;1.00;;;;;;10566691;28;20491;-85
2023/09/01 15:22:29;;;;;;;0.93;0.90;;;15.90;1.00;;;;;;10538186;28;20200;-87
2023/09/01 15:27:50;;;;;;;2.42;1.45;;;15.90;99.90;;;;;;10566571;28;20195;-82
2023/09/01 15:33:11;;;;;;;2.28;1.02;;;15.90;1.00;;;;;;10567039;28;20197;-85
2023/09/01 15:38:32;;;;;;;1.83;0.90;;;15.80;99.90;;;;;;10551442;28;20208;-88
2023/09/01 15:43:54;;;;;;;1.48;0.93;;;15.80;1.00;;;;;;10551592;28;20243;-86
2023/09/01 15:49:15;;;;;;;0.80;0.73;;;15.70;99.90;;;;;;10550949;28;20394;-80
2023/09/01 15:54:37;;;;;;;3.85;1.35;;;15.80;49.10;;;;;;10550896;28;20357;-87
2023/09/01 15:59:58;;;;;;;1.35;1.00;;;15.80;99.90;;;;;;10550490;28;20284;-80
2023/09/01 16:05:20;;;;;;;1.38;1.00;;;15.90;99.90;;;;;;10565245;28;20198;-85
2023/09/01 16:10:42;;;;;;;1.05;0.90;;;15.90;1.00;;;;;;10536273;28;20329;-85
2023/09/01 16:16:04;;;;;;;1.67;1.08;;;15.90;1.00;;;;;;10565009;28;20193;-83
2023/09/01 16:21:25;;;;;;;2.58;1.13;;;16.00;14.90;;;;;;10564033;28;20193;-86
2023/09/01 16:26:48;;;;;;;3.20;1.00;;;16.00;99.90;;;;;;10563250;28;20227;-86
2023/09/01 16:32:09;;;;;;;2.78;1.35;;;15.90;1.00;;;;;;10549124;28;20460;-84
2023/09/01 16:37:31;;;;;;;3.55;2.35;;;15.90;99.90;;;;;;10563757;28;20202;-87
2023/09/01 16:42:53;;;;;;;2.40;1.50;;;15.90;1.00;;;;;;10541878;28;20304;-80
2023/09/01 16:48:14;;;;;;;6.35;1.30;;;15.80;1.00;;;;;;10512138;28;20188;-85
2023/09/01 16:53:35;;;;;;;2.30;1.33;;;15.80;99.90;;;;;;10548638;28;20275;-85
2023/09/01 16:58:57;;;;;;;2.35;1.30;;;15.70;99.90;;;;;;10522928;28;20202;-84
2023/09/01 17:04:18;;;;;;;2.42;1.33;;;15.60;1.00;;;;;;10492439;28;20198;-86
2023/09/01 17:09:39;;;;;;;2.45;1.10;;;15.50;1.00;;;;;;10522502;28;20539;-81
2023/09/01 17:15:01;;;;;;;2.00;1.30;;;15.40;1.00;;;;;;10522757;28;20380;-81
2023/09/01 17:20:26;;;;;;;3.03;1.50;;;15.30;99.90;;;;;;10520103;28;20198;-84
2023/09/01 17:25:47;;;;;;;1.95;1.52;;;15.20;1.00;;;;;;10561516;28;20197;-84
2023/09/01 17:31:08;;;;;;;1.77;1.50;;;15.10;99.90;;;;;;10546931;28;20232;-86
2023/09/01 17:36:29;;;;;;;2.40;1.35;;;15.00;99.90;;;;;;10561191;28;20355;-84
2023/09/01 17:41:51;;;;;;;4.00;2.15;;;15.00;99.90;;;;;;10562104;28;20392;-86
2023/09/01 17:47:12;;;;;;;6.57;2.70;;;15.00;1.00;;;;;;10564723;28;20192;-89
2023/09/01 17:52:33;;;;;;;2.45;1.77;;;14.90;99.90;;;;;;10550559;28;20240;-88
2023/09/01 17:57:54;;;;;;;4.82;2.08;;;14.80;1.00;;;;;;10561367;28;20509;-83
2023/09/01 18:03:16;;;;;;;5.40;3.15;;;14.80;1.00;;;;;;10546847;28;20196;-86
2023/09/01 18:08:38;;;;;;;4.85;3.47;;;14.70;1.00;;;;;;10561335;28;20196;-86
2023/09/01 18:13:59;;;;;;;7.50;3.50;;;14.60;1.00;;;;;;10562014;28;20192;-86
2023/09/01 18:19:20;;;;;;;6.50;4.13;;;14.60;1.00;;;;;;10560857;28;20490;-86
2023/09/01 18:24:42;;;;;;;8.18;4.40;;;14.50;1.00;;;;;;10560979;28;20191;-88
2023/09/01 18:30:05;;;;;;;5.90;3.08;;;14.50;1.00;;;;;;10546266;28;20220;-84
2023/09/01 18:35:28;;;;;;;5.85;2.90;;;14.40;1.00;;;;;;10546050;28;20191;-80
2023/09/01 18:40:51;;;;;;;29.60;18.65;;;14.40;1.00;;;;;;10559792;28;20547;-84
2023/09/01 18:46:12;;;;;;;40.88;23.23;;;14.30;1.00;;;;;;10574772;28;20379;-88
2023/09/01 18:51:34;;;;;;;13.88;8.15;;;14.20;1.00;;;;;;10584965;28;20298;-85
2023/09/01 18:57:02;;;;;;;10.13;6.47;;;14.10;1.00;;;;;;10552935;28;20427;-83
2023/09/01 19:02:35;;;;;;;8.52;4.50;;;14.10;1.00;;;;;;10567470;28;20259;-83
2023/09/01 19:08:29;;;;;;;7.25;5.00;;;14.10;1.00;;;;;;10567260;28;20260;-81
2023/09/01 19:13:54;;;;;;;6.30;4.00;;;14.00;1.00;;;;;;10538285;28;20204;-82
2023/09/01 19:19:18;;;;;;;5.25;3.95;;;14.00;1.00;;;;;;10552524;28;20202;-81
2023/09/01 19:24:39;;;;;;;3.70;2.70;;;13.90;1.00;;;;;;10566352;28;20194;-84
2023/09/01 19:30:01;;;;;;;3.83;2.63;;;13.90;1.00;;;;;;10551796;28;20225;-86
2023/09/01 19:35:22;;;;;;;3.60;2.28;;;13.90;1.00;;;;;;10551370;28;20247;-80
2023/09/01 19:41:03;;;;;;;3.17;2.05;;;13.90;1.00;;;;;;10536726;28;20238;-81
2023/09/01 19:46:24;;;;;;;4.47;2.67;;;13.90;7.00;;;;;;10551255;28;20227;-85
2023/09/01 19:51:45;;;;;;;5.80;2.60;;;13.80;21.60;;;;;;10537196;28;20226;-81
2023/09/01 19:57:07;;;;;;;3.90;2.22;;;13.80;75.60;;;;;;10565693;28;20521;-81
2023/09/01 20:02:30;;;;;;;4.95;2.58;;;13.80;85.10;;;;;;10565702;28;20493;-88
2023/09/01 20:07:52;;;;;;;4.88;2.92;;;13.70;99.90;;;;;;10564436;28;20228;-84
2023/09/01 20:13:14;;;;;;;5.15;2.75;;;13.70;99.90;;;;;;10564515;28;20239;-80
2023/09/01 20:18:35;;;;;;;6.70;2.80;;;13.70;99.90;;;;;;10549934;28;20278;-82
2023/09/01 20:23:56;;;;;;;3.53;2.55;;;13.60;99.90;;;;;;10563754;28;20192;-79
2023/09/01 20:29:19;;;;;;;5.00;2.78;;;13.60;99.90;;;;;;10564274;28;20588;-86
2023/09/01 20:34:40;;;;;;;6.35;2.95;;;13.60;99.90;;;;;;10548980;28;20206;-82
2023/09/01 20:40:04;;;;;;;6.13;3.33;;;13.60;99.90;;;;;;10540454;28;20224;-80
2023/09/01 20:45:25;;;;;;;6.30;3.00;;;13.60;99.90;;;;;;10548682;28;20203;-82
2023/09/01 20:56:06;;;;;;;6.15;3.78;;;13.50;99.90;;;;;;10563111;28;20394;-88
2023/09/01 21:01:27;;;;;;;5.03;3.38;;;13.60;99.90;;;;;;10548812;28;20285;-82
2023/09/01 21:06:49;;;;;;;3.80;2.83;;;13.50;99.90;;;;;;10562592;28;20193;-88
2023/09/01 21:12:10;;;;;;;7.70;3.30;;;13.50;99.90;;;;;;10547717;28;20458;-87
2023/09/01 21:17:31;;;;;;;10.02;3.67;;;13.50;99.90;;;;;;10562183;28;20238;-80
2023/09/01 21:22:52;;;;;;;8.57;3.65;;;13.40;99.90;;;;;;10546704;28;20272;-79
2023/09/01 21:28:13;;;;;;;4.63;3.22;;;13.40;99.90;;;;;;10546860;28;20201;-81
2023/09/01 21:33:34;;;;;;;5.73;3.60;;;13.50;99.90;;;;;;10561364;28;20265;-84
2023/09/01 21:38:56;;;;;;;5.53;3.00;;;13.50;99.90;;;;;;10561676;28;20194;-79
2023/09/01 21:44:17;;;;;;;3.50;2.65;;;13.50;99.90;;;;;;10561043;28;20205;-80
2023/09/01 21:49:38;;;;;;;5.00;3.00;;;13.40;99.90;;;;;;10546124;28;20288;-80
2023/09/01 21:55:00;;;;;;;4.80;3.15;;;13.40;99.90;;;;;;10532288;28;20209;-80
2023/09/01 22:00:21;;;;;;;3.88;2.60;;;13.40;99.90;;;;;;10562018;28;20440;-80
2023/09/01 22:17:47;;;;;;;5.80;4.68;;;13.30;99.90;;;;;;10560749;28;20221;-81
2023/09/01 22:23:09;;;;;;;5.53;3.30;;;13.20;99.90;;;;;;10565997;28;20203;-88
2023/09/01 22:28:30;;;;;;;6.28;3.00;;;13.20;99.90;;;;;;10555184;28;20496;-87
2023/09/01 22:33:51;;;;;;;4.53;2.72;;;13.20;99.90;;;;;;10554450;28;20255;-88
2023/09/01 22:39:12;;;;;;;4.47;2.70;;;13.20;99.90;;;;;;10567941;28;20201;-87
2023/09/01 22:44:33;;;;;;;3.42;2.58;;;13.20;99.90;;;;;;10554016;28;20210;-88
2023/09/01 22:49:54;;;;;;;3.80;2.67;;;13.20;99.90;;;;;;10552724;28;20248;-80
2023/09/01 22:55:16;;;;;;;3.60;2.53;;;13.20;99.90;;;;;;10567636;28;20195;-84
2023/09/01 23:00:37;;;;;;;5.40;3.08;;;13.20;99.90;;;;;;10553313;28;20207;-79
2023/09/01 23:05:58;;;;;;;4.35;2.78;;;13.10;99.90;;;;;;10566790;28;20374;-80
2023/09/01 23:16:39;;;;;;;3.65;2.42;;;13.10;99.90;;;;;;10566774;28;20198;-86
2023/09/01 23:22:03;;;;;;;3.27;2.63;;;13.10;99.90;;;;;;10552618;28;20198;-80
2023/09/01 23:38:04;;;;;;;3.42;2.00;;;13.10;99.90;;;;;;10565864;28;20210;-83
2023/09/01 23:49:10;;;;;;;3.25;2.28;;;13.20;99.90;;;;;;10561192;28;20248;-79
2023/09/01 23:54:31;;;;;;;6.13;2.53;;;13.10;93.50;;;;;;10551104;28;20205;-84
